Time;durP1;ratioP1;P1;durP2;ratioP2;P2;SDS_P1;SDS_P2;PMS_P1;PMS_P2;Temp;Humidity;BMP_temperature;BMP_pressure;BME280_temperature;BME280_humidity;BME280_pressure;Samples;Min_cycle;Max_cycle;Signal;HPM_P1;HPM_P2
2022/01/31 00:00:19;;;;;;;8.73;1.57;;;7.50;66.30;;;;;;5063591;28;20239;-75
2022/01/31 00:02:48;;;;;;;7.83;1.80;;;7.50;66.30;;;;;;5073866;28;20193;-76
2022/01/31 00:05:17;;;;;;;6.57;1.60;;;7.60;66.30;;;;;;5067104;28;20200;-75
2022/01/31 00:07:47;;;;;;;5.50;1.40;;;7.60;66.00;;;;;;5063073;28;20201;-73
2022/01/31 00:10:21;;;;;;;3.93;1.40;;;7.60;65.80;;;;;;5064433;28;20197;-75
2022/01/31 00:12:54;;;;;;;8.00;1.70;;;7.60;65.60;;;;;;5065141;28;20188;-74
2022/01/31 00:15:23;;;;;;;5.03;1.67;;;7.60;65.60;;;;;;5071870;28;20212;-75
2022/01/31 00:17:51;;;;;;;6.97;1.70;;;7.50;65.50;;;;;;5065489;28;20193;-75
2022/01/31 00:20:19;;;;;;;2.90;1.43;;;7.50;65.50;;;;;;5068775;28;20220;-75
2022/01/31 00:22:49;;;;;;;9.23;1.80;;;7.50;65.50;;;;;;5070876;28;20200;-75
2022/01/31 00:25:18;;;;;;;5.83;1.83;;;7.50;65.40;;;;;;5065792;28;20207;-75
2022/01/31 00:27:47;;;;;;;4.30;1.80;;;7.50;65.30;;;;;;5068367;28;20189;-75
2022/01/31 00:30:16;;;;;;;4.90;2.00;;;7.50;65.10;;;;;;5064927;28;20783;-75
2022/01/31 00:32:45;;;;;;;9.40;2.17;;;7.50;65.10;;;;;;5065210;28;20192;-75
2022/01/31 00:35:13;;;;;;;7.80;1.83;;;7.50;65.00;;;;;;5066964;28;20226;-74
2022/01/31 00:37:41;;;;;;;6.60;1.80;;;7.50;65.10;;;;;;5067463;28;20207;-74
2022/01/31 00:40:12;;;;;;;5.40;2.10;;;7.50;65.00;;;;;;5066262;28;20229;-75
2022/01/31 00:42:41;;;;;;;12.40;2.27;;;7.50;64.90;;;;;;5069522;28;20195;-72
2022/01/31 00:45:13;;;;;;;5.03;1.67;;;7.50;64.80;;;;;;5063803;28;20191;-75
2022/01/31 00:47:46;;;;;;;6.80;1.67;;;7.50;64.70;;;;;;5069792;28;20189;-75
2022/01/31 00:50:17;;;;;;;5.03;1.80;;;7.50;64.70;;;;;;5056276;28;20191;-74
2022/01/31 00:52:46;;;;;;;6.07;1.57;;;7.50;64.60;;;;;;5064744;28;20189;-74
2022/01/31 00:55:16;;;;;;;11.82;1.80;;;7.50;64.60;;;;;;5064548;28;20439;-76
2022/01/31 00:57:45;;;;;;;5.27;1.47;;;7.60;64.90;;;;;;5067837;28;20224;-74
2022/01/31 01:00:14;;;;;;;9.87;1.50;;;7.60;64.60;;;;;;5063715;28;20189;-75
2022/01/31 01:02:43;;;;;;;7.33;1.60;;;7.50;64.30;;;;;;5061784;28;20196;-75
2022/01/31 01:05:11;;;;;;;7.63;2.17;;;7.60;64.40;;;;;;5061928;28;20657;-74
2022/01/31 01:07:39;;;;;;;9.87;1.87;;;7.60;64.20;;;;;;5065004;28;20783;-75
2022/01/31 01:10:08;;;;;;;3.87;1.60;;;7.60;64.20;;;;;;5066574;28;20766;-76
2022/01/31 01:12:38;;;;;;;6.00;2.00;;;7.60;64.10;;;;;;5067329;28;20188;-74
2022/01/31 01:15:07;;;;;;;4.60;1.60;;;7.60;64.00;;;;;;5065897;28;20266;-75
2022/01/31 01:17:35;;;;;;;2.47;1.50;;;7.70;64.00;;;;;;5065425;28;20200;-74
2022/01/31 01:20:04;;;;;;;5.33;1.77;;;7.70;64.00;;;;;;5068324;28;20618;-75
2022/01/31 01:22:33;;;;;;;5.60;1.57;;;7.80;63.80;;;;;;5064255;28;20195;-73
2022/01/31 01:25:04;;;;;;;6.37;1.30;;;7.80;63.60;;;;;;5062793;28;20200;-76
2022/01/31 01:27:33;;;;;;;4.33;1.27;;;7.80;63.40;;;;;;5065348;28;20186;-75
2022/01/31 01:30:04;;;;;;;5.77;1.30;;;7.80;63.30;;;;;;5065659;28;20202;-75
2022/01/31 01:32:43;;;;;;;9.20;1.30;;;7.80;63.20;;;;;;5067385;28;20188;-75
2022/01/31 01:35:11;;;;;;;5.57;1.30;;;7.90;63.10;;;;;;5063473;28;20194;-75
2022/01/31 01:37:40;;;;;;;7.60;1.50;;;7.90;63.10;;;;;;5065127;28;20195;-74
2022/01/31 01:40:09;;;;;;;8.50;1.63;;;7.90;63.10;;;;;;5063832;28;20787;-75
2022/01/31 01:42:37;;;;;;;5.83;1.43;;;7.80;63.00;;;;;;5074661;28;20922;-74
2022/01/31 01:45:08;;;;;;;7.20;2.17;;;7.80;63.00;;;;;;5065535;28;20767;-74
2022/01/31 01:47:38;;;;;;;9.17;1.40;;;7.80;63.00;;;;;;5068933;28;20199;-74
2022/01/31 01:50:06;;;;;;;2.43;1.10;;;7.80;63.00;;;;;;5064805;28;20195;-73
2022/01/31 01:52:35;;;;;;;6.17;1.63;;;7.80;63.00;;;;;;5067630;28;20282;-75
2022/01/31 01:55:04;;;;;;;3.30;1.50;;;7.80;62.80;;;;;;5059796;28;20199;-75
2022/01/31 01:57:32;;;;;;;3.83;1.33;;;7.80;62.80;;;;;;5057615;28;20223;-75
2022/01/31 02:00:00;;;;;;;6.80;1.73;;;7.80;62.80;;;;;;5064298;28;20192;-75
2022/01/31 02:02:30;;;;;;;7.30;1.50;;;7.80;62.80;;;;;;5062901;28;20225;-73
2022/01/31 02:04:58;;;;;;;7.13;1.60;;;7.90;62.80;;;;;;5064567;28;20241;-75
2022/01/31 02:07:28;;;;;;;3.73;1.20;;;7.80;62.40;;;;;;5060451;28;20207;-76
2022/01/31 02:09:56;;;;;;;3.17;1.37;;;7.90;62.40;;;;;;5069588;28;20250;-76
2022/01/31 02:12:27;;;;;;;2.23;1.13;;;7.90;62.30;;;;;;5067870;28;21628;-75
2022/01/31 02:14:59;;;;;;;3.77;1.20;;;7.90;62.20;;;;;;5065769;28;20226;-75
2022/01/31 02:17:27;;;;;;;8.63;1.40;;;7.90;62.20;;;;;;5067022;28;20186;-75
2022/01/31 02:19:57;;;;;;;6.63;1.33;;;8.00;62.10;;;;;;5062506;28;20194;-75
2022/01/31 02:22:27;;;;;;;3.90;1.13;;;7.90;61.70;;;;;;5062650;28;20226;-75
2022/01/31 02:24:55;;;;;;;3.13;1.30;;;7.90;61.60;;;;;;5066026;28;20193;-75
2022/01/31 02:27:28;;;;;;;6.27;1.53;;;7.90;61.60;;;;;;5069710;28;20197;-74
2022/01/31 02:29:57;;;;;;;2.53;1.30;;;7.90;61.50;;;;;;5071215;28;20198;-74
2022/01/31 02:32:26;;;;;;;4.03;1.23;;;7.90;61.50;;;;;;5066257;28;20646;-75
2022/01/31 02:34:54;;;;;;;5.47;1.60;;;7.80;61.60;;;;;;5073394;28;20195;-75
2022/01/31 02:37:23;;;;;;;5.37;1.40;;;7.70;61.70;;;;;;5070064;28;20316;-75
2022/01/31 02:39:52;;;;;;;4.03;1.53;;;7.60;61.80;;;;;;5065695;28;20191;-73
2022/01/31 02:42:22;;;;;;;2.90;1.10;;;7.60;61.90;;;;;;5066889;28;20205;-74
2022/01/31 02:44:51;;;;;;;1.50;1.00;;;7.50;62.10;;;;;;5064767;28;20878;-76
2022/01/31 02:47:24;;;;;;;6.13;1.17;;;7.40;62.20;;;;;;5070349;28;20186;-74
2022/01/31 02:49:56;;;;;;;4.13;1.43;;;7.40;62.40;;;;;;5074793;28;20752;-75
2022/01/31 02:52:27;;;;;;;3.10;1.17;;;7.30;62.50;;;;;;5073322;28;20201;-76
2022/01/31 02:54:57;;;;;;;3.10;1.53;;;7.30;62.50;;;;;;5070690;28;20191;-75
2022/01/31 02:57:26;;;;;;;9.43;1.43;;;7.30;62.50;;;;;;5067247;28;20268;-75
2022/01/31 02:59:54;;;;;;;4.83;1.47;;;7.30;62.50;;;;;;5067465;28;20788;-75
2022/01/31 03:02:23;;;;;;;6.03;1.50;;;7.30;62.50;;;;;;5072466;28;20221;-75
2022/01/31 03:04:51;;;;;;;2.27;1.07;;;7.30;62.60;;;;;;5071985;28;20191;-75
2022/01/31 03:07:20;;;;;;;5.43;1.60;;;7.30;63.40;;;;;;5069701;28;20190;-75
2022/01/31 03:09:50;;;;;;;10.23;1.33;;;7.30;62.60;;;;;;5066985;28;20205;-74
2022/01/31 03:12:19;;;;;;;3.30;1.20;;;7.30;62.70;;;;;;5067112;28;20187;-75
2022/01/31 03:14:48;;;;;;;7.37;1.27;;;7.20;62.60;;;;;;5066668;28;20523;-75
2022/01/31 03:17:16;;;;;;;4.27;1.50;;;7.10;62.90;;;;;;5064197;28;20194;-76
2022/01/31 03:19:48;;;;;;;4.03;1.20;;;7.10;62.90;;;;;;5064429;28;20206;-75
2022/01/31 03:22:19;;;;;;;5.30;1.30;;;7.10;63.00;;;;;;5074824;28;20747;-75
2022/01/31 03:24:48;;;;;;;3.87;1.17;;;7.10;63.20;;;;;;5069852;28;20186;-74
2022/01/31 03:27:16;;;;;;;7.50;2.40;;;7.00;63.20;;;;;;5070013;28;20201;-74
2022/01/31 03:29:46;;;;;;;3.03;1.20;;;7.00;63.30;;;;;;5063737;28;20190;-75
2022/01/31 03:32:14;;;;;;;9.87;1.70;;;6.90;63.30;;;;;;5063621;28;20190;-74
2022/01/31 03:34:42;;;;;;;4.57;1.10;;;6.80;63.50;;;;;;5068736;28;20186;-75
2022/01/31 03:37:11;;;;;;;6.93;1.40;;;6.80;63.60;;;;;;5067086;28;20201;-75
2022/01/31 03:39:39;;;;;;;4.60;1.30;;;6.80;63.60;;;;;;5062866;28;20260;-74
2022/01/31 03:42:08;;;;;;;2.67;1.50;;;6.80;63.80;;;;;;5067211;28;20792;-74
2022/01/31 03:44:36;;;;;;;4.53;1.30;;;6.80;63.80;;;;;;5064154;28;20193;-75
2022/01/31 03:47:06;;;;;;;7.30;1.63;;;6.80;63.60;;;;;;5061303;28;20202;-75
2022/01/31 03:49:34;;;;;;;5.70;1.30;;;6.80;63.80;;;;;;5062060;28;20288;-75
2022/01/31 03:52:03;;;;;;;5.80;1.50;;;6.80;63.80;;;;;;5063470;28;20259;-75
2022/01/31 03:54:31;;;;;;;4.93;1.30;;;6.70;63.80;;;;;;5067535;28;20972;-74
2022/01/31 03:57:00;;;;;;;4.53;1.10;;;6.70;64.00;;;;;;5057647;28;20230;-75
2022/01/31 03:59:28;;;;;;;8.40;1.20;;;6.60;64.10;;;;;;5065679;28;20185;-75
2022/01/31 04:01:56;;;;;;;6.57;1.50;;;6.60;64.10;;;;;;5063818;28;20904;-75
2022/01/31 04:04:26;;;;;;;5.27;1.27;;;6.60;64.20;;;;;;5067940;28;20204;-75
2022/01/31 04:06:55;;;;;;;4.67;1.27;;;6.60;64.10;;;;;;5066106;28;20190;-75
2022/01/31 04:09:23;;;;;;;4.30;1.57;;;6.60;64.90;;;;;;5067147;28;20197;-75
2022/01/31 04:11:51;;;;;;;3.40;1.40;;;6.60;64.10;;;;;;5059955;28;20649;-75
2022/01/31 04:14:20;;;;;;;4.80;2.30;;;6.60;64.10;;;;;;5072576;28;20628;-75
2022/01/31 04:16:48;;;;;;;7.93;2.17;;;6.60;64.10;;;;;;5060543;28;20271;-75
2022/01/31 04:19:16;;;;;;;2.77;1.50;;;6.60;64.00;;;;;;5065572;28;20197;-75
2022/01/31 04:21:46;;;;;;;5.00;1.70;;;6.60;63.90;;;;;;5071057;28;20252;-75
2022/01/31 04:24:22;;;;;;;6.40;1.80;;;6.60;63.90;;;;;;5066302;28;20193;-75
2022/01/31 04:26:59;;;;;;;6.20;1.30;;;6.60;63.80;;;;;;5071243;28;20830;-75
2022/01/31 04:29:31;;;;;;;3.23;1.30;;;6.60;63.80;;;;;;5064865;28;20193;-76
2022/01/31 04:31:59;;;;;;;3.47;1.90;;;6.60;63.60;;;;;;5068128;28;20201;-76
2022/01/31 04:34:29;;;;;;;6.27;1.80;;;6.70;63.50;;;;;;5061255;28;20196;-75
2022/01/31 04:36:58;;;;;;;11.00;2.10;;;6.70;63.40;;;;;;5064719;28;20197;-75
2022/01/31 04:39:28;;;;;;;5.30;1.50;;;6.70;63.40;;;;;;5067379;28;20287;-75
2022/01/31 04:41:57;;;;;;;10.60;1.83;;;6.70;63.30;;;;;;5065839;28;20196;-75
2022/01/31 04:44:26;;;;;;;6.23;1.70;;;6.70;63.30;;;;;;5065828;28;20194;-75
2022/01/31 04:46:54;;;;;;;5.83;1.40;;;6.60;63.20;;;;;;5063773;28;20757;-75
2022/01/31 04:49:23;;;;;;;2.47;1.30;;;6.60;63.50;;;;;;5062099;28;20199;-75
2022/01/31 04:51:51;;;;;;;7.30;1.40;;;6.50;63.60;;;;;;5070409;28;20802;-75
2022/01/31 04:54:21;;;;;;;5.77;1.70;;;6.50;63.80;;;;;;5070958;28;20194;-74
2022/01/31 04:56:49;;;;;;;6.70;2.13;;;6.40;63.90;;;;;;5068555;28;20298;-75
2022/01/31 04:59:19;;;;;;;4.20;2.37;;;6.40;64.10;;;;;;5065918;28;20791;-75
2022/01/31 05:01:48;;;;;;;12.27;2.90;;;6.30;64.30;;;;;;5067961;28;20209;-75
2022/01/31 05:04:17;;;;;;;7.97;2.90;;;6.30;64.40;;;;;;5071000;28;20256;-75
2022/01/31 05:06:46;;;;;;;9.03;2.80;;;6.30;64.60;;;;;;5072396;28;20194;-75
2022/01/31 05:09:14;;;;;;;7.80;2.40;;;6.30;64.50;;;;;;5070842;28;20209;-75
2022/01/31 05:11:45;;;;;;;3.77;1.63;;;6.30;64.60;;;;;;5063302;28;20200;-75
2022/01/31 05:14:16;;;;;;;10.97;1.90;;;6.30;64.60;;;;;;5064715;28;20247;-75
2022/01/31 05:16:44;;;;;;;5.00;1.60;;;6.30;64.60;;;;;;5069920;28;20197;-75
2022/01/31 05:19:13;;;;;;;5.97;1.50;;;6.30;64.60;;;;;;5068906;28;20202;-75
2022/01/31 05:21:41;;;;;;;7.23;1.70;;;6.20;64.60;;;;;;5072316;28;20197;-76
2022/01/31 05:24:10;;;;;;;3.80;1.50;;;6.30;64.60;;;;;;5065983;28;20221;-75
2022/01/31 05:26:38;;;;;;;8.27;1.97;;;6.30;64.60;;;;;;5069599;28;20224;-75
2022/01/31 05:29:08;;;;;;;6.23;2.10;;;6.20;64.60;;;;;;5068634;28;20212;-75
2022/01/31 05:31:36;;;;;;;2.63;1.50;;;6.20;64.60;;;;;;5068300;28;20858;-75
2022/01/31 05:34:05;;;;;;;4.83;1.67;;;6.20;64.60;;;;;;5048263;28;20195;-75
2022/01/31 05:36:34;;;;;;;4.93;1.60;;;6.20;64.60;;;;;;5056966;28;20193;-75
2022/01/31 05:39:02;;;;;;;3.43;1.60;;;6.20;64.60;;;;;;5057007;28;20861;-76
2022/01/31 05:41:30;;;;;;;7.50;2.20;;;6.20;64.60;;;;;;5056980;28;20189;-75
2022/01/31 05:43:59;;;;;;;6.17;2.50;;;6.20;64.60;;;;;;5061061;28;20319;-75
2022/01/31 05:46:29;;;;;;;6.90;1.80;;;6.20;64.60;;;;;;5056440;28;20222;-74
2022/01/31 05:48:57;;;;;;;4.40;2.13;;;6.20;64.60;;;;;;5062532;28;20194;-75
2022/01/31 05:51:25;;;;;;;8.10;2.30;;;6.20;64.60;;;;;;5061825;28;20959;-75
2022/01/31 05:53:54;;;;;;;4.70;2.63;;;6.10;64.60;;;;;;5056908;28;20249;-74
2022/01/31 05:56:22;;;;;;;4.80;1.70;;;6.10;64.70;;;;;;5058602;28;20291;-76
2022/01/31 05:58:50;;;;;;;5.10;2.00;;;6.00;64.80;;;;;;5065697;28;20194;-74
2022/01/31 06:01:19;;;;;;;5.13;1.50;;;6.00;64.90;;;;;;5064326;28;20190;-75
2022/01/31 06:03:49;;;;;;;3.23;1.60;;;6.10;64.90;;;;;;5059047;28;20218;-74
2022/01/31 06:06:17;;;;;;;6.23;1.80;;;6.10;65.00;;;;;;5071073;28;20279;-75
2022/01/31 06:08:46;;;;;;;4.57;1.67;;;6.10;65.00;;;;;;5068792;28;20201;-74
2022/01/31 06:11:14;;;;;;;5.73;1.70;;;6.10;65.00;;;;;;5070061;28;20318;-75
2022/01/31 06:13:45;;;;;;;11.83;3.00;;;6.10;65.00;;;;;;5060194;28;20194;-75
2022/01/31 06:16:13;;;;;;;5.13;1.80;;;6.20;65.00;;;;;;5066423;28;20186;-74
2022/01/31 06:18:42;;;;;;;5.00;1.30;;;6.20;64.90;;;;;;5058335;28;20185;-75
2022/01/31 06:21:12;;;;;;;7.40;1.57;;;6.30;64.80;;;;;;5062918;28;20264;-75
2022/01/31 06:23:40;;;;;;;6.67;1.90;;;6.20;64.60;;;;;;5064404;28;20213;-74
2022/01/31 06:26:10;;;;;;;5.47;2.43;;;6.20;64.60;;;;;;5062632;28;20201;-75
2022/01/31 06:28:38;;;;;;;7.47;2.10;;;6.30;64.60;;;;;;5066373;28;20213;-75
2022/01/31 06:31:06;;;;;;;10.90;2.77;;;6.30;64.50;;;;;;5073766;28;20193;-76
2022/01/31 06:33:35;;;;;;;5.83;2.00;;;6.30;64.40;;;;;;5068010;28;20190;-75
2022/01/31 06:36:03;;;;;;;5.43;2.40;;;6.40;64.50;;;;;;5071005;28;20183;-75
2022/01/31 06:38:35;;;;;;;7.60;2.23;;;6.50;64.50;;;;;;5070673;28;20199;-75
2022/01/31 06:41:04;;;;;;;7.03;1.97;;;6.50;64.30;;;;;;5073084;28;20189;-75
2022/01/31 06:43:32;;;;;;;6.90;2.20;;;6.60;64.50;;;;;;5073752;28;20271;-75
2022/01/31 06:48:36;;;;;;;3.97;1.90;;;6.80;64.20;;;;;;5322613;22;20760;-77
2022/01/31 06:51:04;;;;;;;3.87;2.10;;;6.90;64.00;;;;;;5064481;28;20202;-79
2022/01/31 06:53:34;;;;;;;10.13;2.20;;;7.00;63.50;;;;;;5064193;28;20222;-79
2022/01/31 06:56:05;;;;;;;9.03;2.00;;;7.10;63.40;;;;;;5058111;28;20415;-79
2022/01/31 06:58:33;;;;;;;6.57;2.60;;;7.10;63.20;;;;;;5063196;28;20563;-79
2022/01/31 07:01:01;;;;;;;8.53;2.00;;;7.20;62.80;;;;;;5059636;28;20199;-80
2022/01/31 07:03:30;;;;;;;7.70;2.50;;;7.20;62.60;;;;;;5059401;28;20227;-79
2022/01/31 07:05:58;;;;;;;5.57;2.37;;;7.20;62.60;;;;;;5065263;28;20269;-79
2022/01/31 07:08:26;;;;;;;8.37;2.10;;;7.30;62.70;;;;;;5063540;28;20586;-79
2022/01/31 07:10:57;;;;;;;10.50;3.10;;;7.30;62.70;;;;;;5062837;28;20199;-78
2022/01/31 07:13:36;;;;;;;11.87;2.70;;;7.30;62.60;;;;;;5057559;28;20206;-79
2022/01/31 07:16:05;;;;;;;8.43;2.33;;;7.40;62.70;;;;;;5062426;28;20247;-78
2022/01/31 07:18:35;;;;;;;13.07;2.93;;;7.40;62.50;;;;;;5060921;28;20190;-80
2022/01/31 07:21:03;;;;;;;6.57;2.07;;;7.50;62.20;;;;;;5065697;28;20203;-80
2022/01/31 07:23:51;;;;;;;9.13;2.30;;;7.50;62.40;;;;;;5058971;28;20195;-79
2022/01/31 07:26:22;;;;;;;4.63;1.80;;;7.50;62.00;;;;;;5057422;28;20204;-79
2022/01/31 07:28:51;;;;;;;7.33;2.07;;;7.70;62.10;;;;;;5070660;28;20220;-78
2022/01/31 07:31:19;;;;;;;9.23;2.20;;;7.70;61.60;;;;;;5065738;28;20226;-78
2022/01/31 07:33:55;;;;;;;5.43;2.10;;;7.70;61.30;;;;;;5066360;28;20175;-79
2022/01/31 07:36:23;;;;;;;4.97;1.53;;;7.80;61.30;;;;;;5065292;28;20208;-79
2022/01/31 07:38:51;;;;;;;7.80;1.97;;;7.90;61.50;;;;;;5072533;28;20192;-78
2022/01/31 07:41:19;;;;;;;6.67;2.10;;;7.90;60.90;;;;;;5062528;28;20191;-79
2022/01/31 07:43:49;;;;;;;8.83;1.80;;;7.90;60.80;;;;;;5057960;28;20190;-79
2022/01/31 07:46:17;;;;;;;3.20;1.83;;;7.90;60.80;;;;;;5063748;28;20185;-78
2022/01/31 07:48:49;;;;;;;7.77;2.30;;;8.00;60.30;;;;;;5066704;28;20771;-77
2022/01/31 07:51:17;;;;;;;8.17;2.27;;;8.00;60.20;;;;;;5054935;28;20212;-78
2022/01/31 07:53:46;;;;;;;6.15;2.20;;;8.10;60.50;;;;;;5056763;28;20435;-79
2022/01/31 07:56:17;;;;;;;6.90;2.37;;;8.20;61.60;;;;;;5068527;28;20198;-79
2022/01/31 07:58:45;;;;;;;5.13;2.50;;;8.20;60.20;;;;;;5058315;28;20182;-80
2022/01/31 08:01:15;;;;;;;4.37;1.93;;;8.40;60.10;;;;;;5065223;28;20837;-79
2022/01/31 08:03:45;;;;;;;12.77;3.40;;;8.50;60.20;;;;;;5070454;28;20487;-80
2022/01/31 08:06:13;;;;;;;5.77;1.90;;;8.60;59.90;;;;;;5067325;28;20840;-80
2022/01/31 08:08:42;;;;;;;12.07;1.80;;;8.70;59.70;;;;;;5070236;28;20657;-77
2022/01/31 08:11:11;;;;;;;5.10;2.00;;;8.70;59.30;;;;;;5074302;28;20241;-78
2022/01/31 08:13:39;;;;;;;7.07;2.70;;;8.80;59.30;;;;;;5065393;28;20201;-78
2022/01/31 08:16:12;;;;;;;10.70;2.60;;;8.90;59.20;;;;;;5067083;28;20702;-78
2022/01/31 08:18:43;;;;;;;6.00;2.13;;;9.00;59.00;;;;;;5063268;28;20179;-77
2022/01/31 08:21:13;;;;;;;6.60;2.70;;;9.10;58.50;;;;;;5065537;28;20294;-78
2022/01/31 08:23:42;;;;;;;6.37;1.97;;;9.20;57.90;;;;;;5063032;28;20183;-78
2022/01/31 08:26:15;;;;;;;6.13;2.20;;;9.20;57.50;;;;;;5063142;28;20218;-78
2022/01/31 08:28:49;;;;;;;4.53;2.07;;;9.30;57.90;;;;;;5063093;28;20189;-79
2022/01/31 08:31:22;;;;;;;8.33;2.13;;;9.30;57.90;;;;;;5064712;28;20218;-78
2022/01/31 08:34:06;;;;;;;7.17;1.97;;;9.40;57.60;;;;;;5062284;28;20826;-78
2022/01/31 08:36:35;;;;;;;10.23;2.27;;;9.40;57.30;;;;;;5068882;28;20183;-78
2022/01/31 08:39:09;;;;;;;6.03;1.73;;;9.50;57.00;;;;;;5054684;28;20187;-78
2022/01/31 08:41:39;;;;;;;10.53;1.70;;;9.50;57.00;;;;;;5065350;28;20186;-78
2022/01/31 08:44:07;;;;;;;11.43;2.77;;;9.60;56.90;;;;;;5059895;28;20364;-78
2022/01/31 08:46:39;;;;;;;5.43;1.63;;;9.60;56.80;;;;;;5060632;28;20224;-79
2022/01/31 08:49:09;;;;;;;8.97;2.93;;;9.60;56.90;;;;;;5059081;28;20729;-78
2022/01/31 08:51:38;;;;;;;7.07;2.20;;;9.70;56.90;;;;;;5060785;28;20183;-78
2022/01/31 08:54:07;;;;;;;5.33;1.80;;;9.70;56.10;;;;;;5063943;28;20209;-79
2022/01/31 08:56:44;;;;;;;11.93;2.10;;;9.80;56.20;;;;;;5060630;28;20840;-78
2022/01/31 08:59:15;;;;;;;8.40;1.70;;;9.90;56.50;;;;;;5060352;28;20178;-78
2022/01/31 09:01:52;;;;;;;5.40;2.10;;;9.90;56.10;;;;;;5061218;28;20664;-78
2022/01/31 09:04:33;;;;;;;5.27;2.30;;;10.00;55.70;;;;;;5064146;28;20183;-78
2022/01/31 09:07:02;;;;;;;5.70;2.27;;;10.10;55.80;;;;;;5058594;28;20189;-79
2022/01/31 09:09:31;;;;;;;4.33;1.70;;;10.20;55.40;;;;;;5060494;28;20183;-78
2022/01/31 09:12:07;;;;;;;5.30;2.00;;;10.20;54.80;;;;;;5065786;28;20278;-78
2022/01/31 09:14:36;;;;;;;7.27;2.43;;;10.30;55.20;;;;;;5059052;28;20225;-81
2022/01/31 09:17:05;;;;;;;10.50;2.13;;;10.30;54.80;;;;;;5066959;28;20201;-81
2022/01/31 09:19:34;;;;;;;8.23;2.37;;;10.40;54.60;;;;;;5065538;28;20598;-79
2022/01/31 09:22:03;;;;;;;8.37;2.43;;;10.40;54.50;;;;;;5065430;28;20542;-80
2022/01/31 09:24:37;;;;;;;5.53;1.83;;;10.40;54.40;;;;;;5053778;28;20187;-78
2022/01/31 09:27:05;;;;;;;6.87;2.63;;;10.50;54.50;;;;;;5061800;28;20901;-79
2022/01/31 09:29:34;;;;;;;8.43;2.33;;;10.50;53.50;;;;;;5062051;28;20593;-80
2022/01/31 09:32:04;;;;;;;4.30;1.90;;;10.50;53.60;;;;;;5062518;28;20196;-79
2022/01/31 09:34:34;;;;;;;7.83;2.97;;;10.60;54.10;;;;;;5065481;28;20201;-80
2022/01/31 09:37:03;;;;;;;10.27;2.93;;;10.70;54.00;;;;;;5059068;28;20240;-79
2022/01/31 09:39:32;;;;;;;8.87;2.50;;;10.70;53.40;;;;;;5073551;28;20198;-81
2022/01/31 09:42:07;;;;;;;13.70;2.53;;;10.80;53.60;;;;;;5065534;28;20589;-79
2022/01/31 09:44:46;;;;;;;8.03;1.70;;;10.90;53.70;;;;;;5068588;28;20192;-79
2022/01/31 09:47:22;;;;;;;15.97;2.33;;;11.00;52.80;;;;;;5062071;28;20526;-80
2022/01/31 09:49:52;;;;;;;12.73;2.03;;;11.00;52.90;;;;;;5066484;28;20640;-81
2022/01/31 09:52:21;;;;;;;8.60;2.40;;;11.10;51.40;;;;;;5070215;28;20186;-79
2022/01/31 09:54:49;;;;;;;7.47;1.77;;;11.10;51.80;;;;;;5067373;28;20186;-80
2022/01/31 09:57:18;;;;;;;6.90;1.97;;;11.10;51.10;;;;;;5069850;28;20198;-79
2022/01/31 09:59:46;;;;;;;9.17;1.37;;;11.20;51.40;;;;;;5077389;28;20192;-80
2022/01/31 10:02:15;;;;;;;4.03;1.60;;;11.30;50.90;;;;;;5068216;28;20659;-80
2022/01/31 10:04:45;;;;;;;7.57;2.00;;;11.30;50.30;;;;;;5065847;28;20286;-78
2022/01/31 10:07:16;;;;;;;11.83;2.27;;;11.30;49.80;;;;;;5074066;28;20188;-80
2022/01/31 10:09:47;;;;;;;5.60;1.90;;;11.30;49.70;;;;;;5069075;28;20187;-79
2022/01/31 10:12:28;;;;;;;11.00;1.93;;;11.40;50.00;;;;;;5067516;28;20170;-78
2022/01/31 10:17:45;;;;;;;7.87;1.87;;;11.50;49.70;;;;;;5063943;28;20209;-79
2022/01/31 10:20:27;;;;;;;14.27;2.37;;;11.60;49.40;;;;;;5065266;28;20851;-78
2022/01/31 10:23:06;;;;;;;9.30;1.47;;;11.70;49.40;;;;;;5068784;28;20288;-77
2022/01/31 10:25:34;;;;;;;5.67;1.53;;;11.70;48.70;;;;;;5065471;28;20941;-78
2022/01/31 10:28:14;;;;;;;8.63;2.37;;;11.80;49.50;;;;;;5072767;28;20266;-78
2022/01/31 10:30:44;;;;;;;4.70;1.63;;;11.80;48.90;;;;;;5071862;28;20205;-78
2022/01/31 10:33:13;;;;;;;7.13;1.80;;;11.80;48.20;;;;;;5065215;28;20217;-78
2022/01/31 10:35:44;;;;;;;13.63;2.40;;;11.90;48.40;;;;;;5064670;28;20897;-77
2022/01/31 10:38:20;;;;;;;7.60;2.13;;;11.90;47.90;;;;;;5069155;28;20178;-78
2022/01/31 10:44:13;;;;;;;6.43;1.47;;;12.00;47.80;;;;;;5061794;28;20175;-78
2022/01/31 10:52:28;;;;;;;4.27;1.60;;;12.10;47.90;;;;;;5057345;28;20175;-78
2022/01/31 10:55:13;;;;;;;10.57;1.50;;;12.20;48.20;;;;;;5058515;28;20191;-79
2022/01/31 10:57:42;;;;;;;7.97;2.10;;;12.30;48.20;;;;;;5068380;28;20248;-79
2022/01/31 11:00:10;;;;;;;6.17;1.97;;;12.40;48.30;;;;;;5065827;28;20206;-73
2022/01/31 11:02:39;;;;;;;9.40;1.77;;;12.40;47.90;;;;;;5069163;28;20221;-75
2022/01/31 11:05:23;;;;;;;9.67;1.87;;;12.50;47.70;;;;;;5070381;28;20185;-74
2022/01/31 11:08:11;;;;;;;9.20;2.60;;;12.60;48.10;;;;;;5064829;28;20174;-76
2022/01/31 11:10:41;;;;;;;7.13;1.77;;;12.60;46.90;;;;;;5059994;28;20194;-74
2022/01/31 11:13:09;;;;;;;7.90;1.93;;;12.60;46.60;;;;;;5063190;28;20186;-74
2022/01/31 11:15:38;;;;;;;3.70;1.43;;;12.70;46.50;;;;;;5066302;28;20183;-75
2022/01/31 11:18:07;;;;;;;2.77;1.43;;;12.70;45.50;;;;;;5066531;28;20194;-74
2022/01/31 11:20:37;;;;;;;7.03;1.40;;;12.70;45.50;;;;;;5067282;28;20714;-75
2022/01/31 11:23:05;;;;;;;3.80;1.07;;;12.80;44.90;;;;;;5063727;28;20181;-75
2022/01/31 11:25:37;;;;;;;6.03;1.57;;;12.80;44.50;;;;;;5063460;28;20221;-74
2022/01/31 11:28:11;;;;;;;8.87;1.57;;;12.90;45.00;;;;;;5063623;28;20190;-75
2022/01/31 11:30:42;;;;;;;14.33;2.03;;;12.90;45.00;;;;;;5069586;28;20197;-75
2022/01/31 11:33:13;;;;;;;15.07;2.67;;;12.90;45.00;;;;;;5065845;28;20178;-75
2022/01/31 11:35:41;;;;;;;10.80;2.07;;;12.90;45.60;;;;;;5068666;28;20190;-75
2022/01/31 11:38:10;;;;;;;7.40;1.47;;;13.00;45.50;;;;;;5062359;28;20195;-76
2022/01/31 11:40:39;;;;;;;10.10;1.90;;;13.10;45.40;;;;;;5060446;28;20277;-74
2022/01/31 11:43:09;;;;;;;10.43;1.40;;;13.10;44.90;;;;;;5066186;28;20199;-75
2022/01/31 11:45:41;;;;;;;8.60;1.57;;;13.20;44.90;;;;;;5065041;28;20208;-75
2022/01/31 11:48:14;;;;;;;11.60;1.57;;;13.20;45.10;;;;;;5065826;28;20966;-77
2022/01/31 11:50:45;;;;;;;8.07;1.90;;;13.20;44.90;;;;;;5057811;28;20185;-78
2022/01/31 11:53:13;;;;;;;12.13;1.90;;;13.10;44.90;;;;;;5063138;28;20183;-79
2022/01/31 11:55:42;;;;;;;8.80;1.90;;;13.10;45.00;;;;;;5065166;28;20186;-79
2022/01/31 11:58:15;;;;;;;10.10;1.77;;;13.00;44.90;;;;;;5068982;28;20190;-78
2022/01/31 12:00:44;;;;;;;16.20;2.83;;;12.90;44.90;;;;;;5066385;28;20234;-79
2022/01/31 12:03:16;;;;;;;10.90;2.00;;;12.90;45.20;;;;;;5066842;28;20189;-79
2022/01/31 12:05:45;;;;;;;20.80;2.23;;;12.90;45.40;;;;;;5074683;28;20178;-77
2022/01/31 12:08:16;;;;;;;12.77;1.60;;;13.00;45.10;;;;;;5065562;28;20262;-79
2022/01/31 12:10:48;;;;;;;8.70;1.87;;;13.00;44.80;;;;;;5062236;28;20183;-78
2022/01/31 12:13:38;;;;;;;11.43;2.03;;;13.00;45.00;;;;;;5061733;28;20189;-78
2022/01/31 12:16:20;;;;;;;10.03;1.67;;;13.00;45.00;;;;;;5062885;28;20194;-79
2022/01/31 12:19:27;;;;;;;15.17;2.30;;;12.90;44.00;;;;;;5067361;28;20178;-77
2022/01/31 12:22:04;;;;;;;11.93;2.13;;;13.00;44.40;;;;;;5066759;28;20182;-80
2022/01/31 12:24:35;;;;;;;14.57;2.57;;;13.00;44.80;;;;;;5060704;28;20197;-77
2022/01/31 12:27:09;;;;;;;6.50;1.50;;;13.00;44.70;;;;;;5065097;28;20198;-78
2022/01/31 12:29:41;;;;;;;7.67;1.70;;;13.10;44.70;;;;;;5053808;28;20597;-79
2022/01/31 12:32:16;;;;;;;9.77;2.60;;;13.00;44.60;;;;;;5057991;28;20181;-77
2022/01/31 12:34:53;;;;;;;11.90;2.37;;;13.00;44.70;;;;;;5050996;28;20187;-78
2022/01/31 12:37:31;;;;;;;8.87;1.67;;;13.10;44.90;;;;;;5053639;28;20201;-79
2022/01/31 12:40:05;;;;;;;6.33;1.70;;;13.10;44.10;;;;;;5057745;28;20193;-76
2022/01/31 12:42:54;;;;;;;15.70;2.80;;;13.20;44.40;;;;;;5061506;28;20269;-79
2022/01/31 12:45:31;;;;;;;9.87;1.60;;;13.20;44.50;;;;;;5063394;28;20187;-78
2022/01/31 12:48:16;;;;;;;9.13;1.63;;;13.20;44.80;;;;;;5026197;28;20604;-78
2022/01/31 12:50:59;;;;;;;10.23;2.20;;;13.30;44.90;;;;;;5049500;28;20555;-76
2022/01/31 12:53:52;;;;;;;7.27;2.07;;;13.30;44.40;;;;;;5055191;28;20265;-78
2022/01/31 12:56:31;;;;;;;8.57;2.30;;;13.40;44.20;;;;;;5065884;28;20187;-77
2022/01/31 12:59:15;;;;;;;7.17;1.90;;;13.40;44.40;;;;;;5064631;28;20751;-77
2022/01/31 13:01:47;;;;;;;9.93;1.90;;;13.40;44.60;;;;;;5058457;28;20712;-77
2022/01/31 13:04:19;;;;;;;10.77;1.80;;;13.40;44.90;;;;;;5058475;28;20632;-78
2022/01/31 13:06:49;;;;;;;7.97;2.00;;;13.30;43.30;;;;;;5047447;28;20223;-79
2022/01/31 13:09:23;;;;;;;5.83;1.60;;;13.40;43.50;;;;;;5062704;28;20280;-78
2022/01/31 13:11:54;;;;;;;10.90;2.00;;;13.40;43.30;;;;;;5060922;28;20279;-78
2022/01/31 13:14:25;;;;;;;7.90;1.40;;;13.40;43.40;;;;;;5059233;28;20217;-78
2022/01/31 13:17:18;;;;;;;9.37;1.97;;;13.40;43.60;;;;;;5064080;28;20863;-78
2022/01/31 13:19:48;;;;;;;10.30;2.37;;;13.50;44.20;;;;;;5066813;28;20264;-77
2022/01/31 13:22:24;;;;;;;8.17;2.17;;;13.50;43.60;;;;;;5065478;28;20746;-79
2022/01/31 13:24:56;;;;;;;9.50;2.60;;;13.50;43.60;;;;;;5069045;28;20190;-78